Time;durP1;ratioP1;P1;durP2;ratioP2;P2;SDS_P1;SDS_P2;PMS_P1;PMS_P2;Temp;Humidity;BMP_temperature;BMP_pressure;BME280_temperature;BME280_humidity;BME280_pressure;Samples;Min_cycle;Max_cycle;Signal;HPM_P1;HPM_P2
2023/05/19 00:01:18;;;;;;;7.33;3.27;;;9.60;99.90;;;;;;5096270;28;20609;-50
2023/05/19 00:03:56;;;;;;;5.97;2.60;;;9.50;99.90;;;;;;5096105;28;20206;-50
2023/05/19 00:06:24;;;;;;;4.70;2.90;;;9.50;99.90;;;;;;5096357;28;20174;-47
2023/05/19 00:08:58;;;;;;;7.53;3.00;;;9.50;99.90;;;;;;5096045;28;20174;-50
2023/05/19 00:11:25;;;;;;;7.07;3.23;;;9.40;99.90;;;;;;5095741;28;20220;-49
2023/05/19 00:13:53;;;;;;;6.87;2.80;;;9.40;99.90;;;;;;5096144;28;20293;-49
2023/05/19 00:16:19;;;;;;;5.50;2.83;;;9.40;99.90;;;;;;5095966;28;20694;-50
2023/05/19 00:18:46;;;;;;;3.90;2.70;;;9.30;99.90;;;;;;5095790;28;20179;-48
2023/05/19 00:21:11;;;;;;;7.30;2.83;;;9.20;99.90;;;;;;5096094;28;20179;-51
2023/05/19 00:23:37;;;;;;;6.30;2.73;;;9.20;99.90;;;;;;5095813;28;20191;-49
2023/05/19 00:26:02;;;;;;;7.80;3.07;;;9.20;99.90;;;;;;5095805;28;20178;-49
2023/05/19 00:28:28;;;;;;;6.43;3.03;;;9.10;99.90;;;;;;5095906;28;20206;-50
2023/05/19 00:30:54;;;;;;;7.20;3.00;;;9.10;99.90;;;;;;5095937;28;20642;-50
2023/05/19 00:33:20;;;;;;;4.20;2.87;;;9.10;99.90;;;;;;5095850;28;20210;-50
2023/05/19 00:35:46;;;;;;;6.50;2.73;;;9.00;99.90;;;;;;5095832;28;20177;-50
2023/05/19 00:38:11;;;;;;;9.33;3.10;;;9.00;99.90;;;;;;5095645;28;20650;-50
2023/05/19 00:40:37;;;;;;;8.63;3.27;;;8.90;99.90;;;;;;5094737;28;20205;-49
2023/05/19 00:43:04;;;;;;;6.40;3.37;;;8.90;99.90;;;;;;5096498;28;20630;-49
2023/05/19 00:45:30;;;;;;;5.23;2.60;;;8.90;99.90;;;;;;5096548;28;20187;-49
2023/05/19 00:47:56;;;;;;;7.00;3.03;;;8.80;99.90;;;;;;5095508;28;20194;-50
2023/05/19 00:50:23;;;;;;;7.10;2.90;;;8.80;99.90;;;;;;5095294;28;20178;-50
2023/05/19 00:52:50;;;;;;;6.00;2.73;;;8.70;99.90;;;;;;5095375;28;20202;-50
2023/05/19 00:55:16;;;;;;;5.50;2.77;;;8.70;99.90;;;;;;5093935;28;20179;-50
2023/05/19 00:57:43;;;;;;;6.77;3.00;;;8.70;99.90;;;;;;5095166;28;20183;-49
2023/05/19 01:00:10;;;;;;;5.97;2.60;;;8.60;99.90;;;;;;5095063;28;20174;-49
2023/05/19 01:02:38;;;;;;;7.83;3.00;;;8.60;99.90;;;;;;5095197;28;20241;-50
2023/05/19 01:05:05;;;;;;;5.17;2.83;;;8.50;99.90;;;;;;5094958;28;20178;-49
2023/05/19 01:07:31;;;;;;;5.80;3.10;;;8.50;99.90;;;;;;5094767;28;20199;-50
2023/05/19 01:09:57;;;;;;;7.40;2.97;;;8.40;99.90;;;;;;5094859;28;20307;-50
2023/05/19 01:12:24;;;;;;;5.97;3.03;;;8.40;99.90;;;;;;5094917;28;20218;-49
2023/05/19 01:14:50;;;;;;;6.80;3.00;;;8.30;99.90;;;;;;5093522;28;20177;-49
2023/05/19 01:17:43;;;;;;;7.17;2.90;;;8.30;99.90;;;;;;5095347;28;20667;-50
2023/05/19 01:20:19;;;;;;;8.30;2.70;;;8.20;99.90;;;;;;5095536;28;20186;-50
2023/05/19 01:23:16;;;;;;;12.47;2.90;;;8.20;99.90;;;;;;5094437;28;20224;-49
2023/05/19 01:25:44;;;;;;;7.53;3.43;;;8.10;99.90;;;;;;5095009;28;20177;-50
2023/05/19 01:28:48;;;;;;;10.90;3.10;;;8.10;99.90;;;;;;5094726;28;20212;-51
2023/05/19 01:31:14;;;;;;;16.10;3.53;;;8.00;99.90;;;;;;5094482;28;20200;-49
2023/05/19 01:33:42;;;;;;;6.17;3.57;;;8.00;99.90;;;;;;5094461;28;20301;-50
2023/05/19 01:36:09;;;;;;;7.80;3.40;;;8.00;99.90;;;;;;5094683;28;20183;-50
2023/05/19 01:38:37;;;;;;;11.70;3.43;;;8.00;99.90;;;;;;5094252;28;20180;-50
2023/05/19 01:41:05;;;;;;;8.50;3.50;;;8.00;99.90;;;;;;5094525;28;20667;-51
2023/05/19 01:43:33;;;;;;;11.20;4.00;;;7.90;99.90;;;;;;5094077;28;20311;-49
2023/05/19 01:46:01;;;;;;;10.60;3.90;;;7.90;99.90;;;;;;5094738;28;20172;-49
2023/05/19 01:48:28;;;;;;;7.83;3.27;;;7.90;99.90;;;;;;5094433;28;20208;-42
2023/05/19 01:50:56;;;;;;;10.43;3.73;;;7.90;99.90;;;;;;5094413;28;20237;-42
2023/05/19 01:53:22;;;;;;;14.63;3.80;;;7.90;99.90;;;;;;5098482;28;20212;-43
2023/05/19 01:55:52;;;;;;;10.73;3.43;;;7.90;99.90;;;;;;5102406;28;20248;-43
2023/05/19 01:58:43;;;;;;;8.17;4.00;;;7.90;99.90;;;;;;5094491;28;20296;-43
2023/05/19 02:01:38;;;;;;;5.33;3.40;;;7.90;99.90;;;;;;5094115;28;20164;-44
2023/05/19 02:04:04;;;;;;;10.07;3.30;;;7.90;99.90;;;;;;5094176;28;20212;-44
2023/05/19 02:06:40;;;;;;;8.90;3.80;;;7.90;99.90;;;;;;5093808;28;20176;-43
2023/05/19 02:09:14;;;;;;;10.73;3.20;;;7.90;99.90;;;;;;5093948;28;20169;-43
2023/05/19 02:11:52;;;;;;;12.27;4.10;;;7.80;99.90;;;;;;5094439;28;20158;-43
2023/05/19 02:14:24;;;;;;;11.03;4.17;;;7.80;99.90;;;;;;5093966;28;20214;-43
2023/05/19 02:16:51;;;;;;;6.43;3.63;;;7.80;99.90;;;;;;5094032;28;20180;-43
2023/05/19 02:19:38;;;;;;;8.13;3.40;;;7.80;99.90;;;;;;5093672;28;20183;-43
2023/05/19 02:22:03;;;;;;;10.87;3.40;;;7.80;99.90;;;;;;5093679;28;20172;-42
2023/05/19 02:24:29;;;;;;;7.27;3.87;;;7.80;99.90;;;;;;5093608;28;20252;-43
2023/05/19 02:26:55;;;;;;;6.57;3.37;;;7.80;99.90;;;;;;5093775;28;20212;-44
2023/05/19 02:29:20;;;;;;;7.10;4.03;;;7.80;99.90;;;;;;5093825;28;20184;-44
2023/05/19 02:31:46;;;;;;;9.10;3.97;;;7.80;99.90;;;;;;5093547;28;20270;-44
2023/05/19 02:34:12;;;;;;;7.20;3.50;;;7.80;99.90;;;;;;5093492;28;20230;-44
2023/05/19 02:36:40;;;;;;;6.60;3.60;;;7.80;99.90;;;;;;5093554;28;20587;-43
2023/05/19 02:39:05;;;;;;;5.67;3.03;;;7.80;99.90;;;;;;5093599;28;20612;-43
2023/05/19 02:41:31;;;;;;;7.07;3.73;;;7.80;99.90;;;;;;5093703;28;20179;-43
2023/05/19 02:43:57;;;;;;;6.73;3.53;;;7.80;99.90;;;;;;5093382;28;20221;-44
2023/05/19 02:46:23;;;;;;;7.67;3.77;;;7.70;99.90;;;;;;5093330;28;20182;-45
2023/05/19 02:48:50;;;;;;;12.60;4.57;;;7.70;99.90;;;;;;5093908;28;20186;-43
2023/05/19 02:51:16;;;;;;;5.77;3.40;;;7.70;99.90;;;;;;5093641;28;20210;-43
2023/05/19 02:53:41;;;;;;;6.20;3.40;;;7.70;99.90;;;;;;5093515;28;20668;-43
2023/05/19 02:56:07;;;;;;;4.90;3.30;;;7.60;99.90;;;;;;5093653;28;20631;-43
2023/05/19 02:58:33;;;;;;;5.70;3.43;;;7.60;99.90;;;;;;5093358;28;20184;-43
2023/05/19 03:00:58;;;;;;;7.57;3.70;;;7.50;99.90;;;;;;5093217;28;20193;-43
2023/05/19 03:03:24;;;;;;;6.80;3.60;;;7.50;99.90;;;;;;5093164;28;20211;-42
2023/05/19 03:05:50;;;;;;;8.00;3.37;;;7.50;99.90;;;;;;5093218;28;20199;-43
2023/05/19 03:08:16;;;;;;;6.60;4.07;;;7.40;99.90;;;;;;5093298;28;20247;-42
2023/05/19 03:10:41;;;;;;;6.20;3.50;;;7.40;99.90;;;;;;5093179;28;20248;-42
2023/05/19 03:13:07;;;;;;;9.57;3.40;;;7.40;99.90;;;;;;5093061;28;20190;-42
2023/05/19 03:15:33;;;;;;;7.40;3.90;;;7.30;99.90;;;;;;5093080;28;20184;-44
2023/05/19 03:17:58;;;;;;;7.03;3.63;;;7.30;99.90;;;;;;5093002;28;20182;-42
2023/05/19 03:20:24;;;;;;;7.63;3.47;;;7.30;99.90;;;;;;5093038;28;20185;-42
2023/05/19 03:22:50;;;;;;;6.20;3.60;;;7.30;99.90;;;;;;5093226;28;20259;-45
2023/05/19 03:25:15;;;;;;;7.93;3.70;;;7.20;99.90;;;;;;5092935;28;20524;-42
2023/05/19 03:27:41;;;;;;;9.37;4.00;;;7.20;99.90;;;;;;5092876;28;20200;-43
2023/05/19 03:30:08;;;;;;;7.63;3.63;;;7.20;99.90;;;;;;5092880;28;20224;-45
2023/05/19 03:32:36;;;;;;;6.33;3.80;;;7.20;99.90;;;;;;5093097;28;20199;-44
2023/05/19 03:35:03;;;;;;;6.17;3.50;;;7.20;99.90;;;;;;5092859;28;20660;-45
2023/05/19 03:37:29;;;;;;;9.80;4.07;;;7.20;99.90;;;;;;5093209;28;20191;-41
2023/05/19 03:39:54;;;;;;;8.00;3.43;;;7.20;99.90;;;;;;5092808;28;20205;-42
2023/05/19 03:42:21;;;;;;;13.83;4.37;;;7.20;99.90;;;;;;5092958;28;20230;-45
2023/05/19 03:44:47;;;;;;;8.77;4.57;;;7.20;99.90;;;;;;5093146;28;20662;-43
2023/05/19 03:47:12;;;;;;;7.27;3.60;;;7.20;99.90;;;;;;5094094;28;20662;-43
2023/05/19 03:49:38;;;;;;;6.83;3.70;;;7.20;99.90;;;;;;5096771;28;20175;-44
2023/05/19 03:52:04;;;;;;;8.17;4.00;;;7.20;99.90;;;;;;5096437;28;20179;-42
2023/05/19 03:54:30;;;;;;;8.07;4.40;;;7.20;99.90;;;;;;5096395;28;20198;-43
2023/05/19 03:56:56;;;;;;;12.10;4.97;;;7.20;99.90;;;;;;5096758;28;20175;-43
2023/05/19 03:59:22;;;;;;;18.17;10.60;;;7.20;99.90;;;;;;5096576;28;20560;-42
2023/05/19 04:01:48;;;;;;;13.20;7.37;;;7.10;99.90;;;;;;5096823;28;20190;-42
2023/05/19 04:04:13;;;;;;;13.17;5.87;;;7.20;99.90;;;;;;5097042;28;20203;-44
2023/05/19 04:06:39;;;;;;;7.47;4.57;;;7.20;99.90;;;;;;5097172;28;20252;-43
2023/05/19 04:09:11;;;;;;;7.87;4.20;;;7.10;99.90;;;;;;5097023;28;20202;-42
2023/05/19 04:11:38;;;;;;;8.60;4.67;;;7.10;99.90;;;;;;5096057;28;20193;-44
2023/05/19 04:14:04;;;;;;;7.10;4.23;;;7.10;99.90;;;;;;5096163;28;20253;-43
2023/05/19 04:16:29;;;;;;;9.50;4.87;;;7.10;99.90;;;;;;5095958;28;20595;-47
2023/05/19 04:18:55;;;;;;;9.70;4.30;;;7.10;99.90;;;;;;5095997;28;20175;-43
2023/05/19 04:21:21;;;;;;;8.73;3.93;;;7.20;99.90;;;;;;5096128;28;20183;-45
2023/05/19 04:23:47;;;;;;;7.17;4.70;;;7.20;99.90;;;;;;5095936;28;20279;-42
2023/05/19 04:26:16;;;;;;;8.40;4.57;;;7.20;99.90;;;;;;5096152;28;20228;-45
2023/05/19 04:28:43;;;;;;;7.53;4.07;;;7.20;99.90;;;;;;5095608;28;20679;-44
2023/05/19 04:31:11;;;;;;;7.20;4.27;;;7.20;99.90;;;;;;5095906;28;20212;-43
2023/05/19 04:33:37;;;;;;;10.67;4.67;;;7.20;99.90;;;;;;5095749;28;20206;-43
2023/05/19 04:36:07;;;;;;;21.23;9.00;;;7.30;99.90;;;;;;5095656;28;20174;-41
2023/05/19 04:38:33;;;;;;;20.47;8.97;;;7.30;99.90;;;;;;5095570;28;20187;-44
2023/05/19 04:41:00;;;;;;;23.93;11.17;;;7.40;99.90;;;;;;5095485;28;20259;-44
2023/05/19 04:43:27;;;;;;;20.57;10.93;;;7.40;99.90;;;;;;5095543;28;20225;-42
2023/05/19 04:45:53;;;;;;;15.43;7.07;;;7.40;99.90;;;;;;5095487;28;20183;-43
2023/05/19 04:48:20;;;;;;;12.33;5.87;;;7.50;99.90;;;;;;5095680;28;20604;-44
2023/05/19 04:50:47;;;;;;;10.10;4.80;;;7.50;99.90;;;;;;5095586;28;20262;-41
2023/05/19 04:53:13;;;;;;;8.53;5.27;;;7.60;99.90;;;;;;5095471;28;20661;-43
2023/05/19 04:55:39;;;;;;;10.67;5.30;;;7.60;99.90;;;;;;5095342;28;20182;-44
2023/05/19 04:58:05;;;;;;;9.43;5.20;;;7.70;99.90;;;;;;5095424;28;20185;-45
2023/05/19 05:00:31;;;;;;;8.60;5.40;;;7.70;99.90;;;;;;5095988;28;20201;-44
2023/05/19 05:02:56;;;;;;;8.47;5.13;;;7.80;99.90;;;;;;5096537;28;20209;-43
2023/05/19 05:05:23;;;;;;;11.13;5.63;;;7.80;99.90;;;;;;5096863;28;20202;-43
2023/05/19 05:07:48;;;;;;;8.80;5.33;;;7.80;99.90;;;;;;5097065;28;20241;-46
2023/05/19 05:10:14;;;;;;;13.33;5.57;;;7.90;99.90;;;;;;5095257;28;20202;-44
2023/05/19 05:12:40;;;;;;;11.73;5.53;;;7.90;99.90;;;;;;5095041;28;20719;-40
2023/05/19 05:15:06;;;;;;;11.57;5.40;;;8.00;99.90;;;;;;5094873;28;20174;-45
2023/05/19 05:17:34;;;;;;;13.17;6.13;;;8.00;99.90;;;;;;5094808;28;20179;-44
2023/05/19 05:20:01;;;;;;;11.47;6.13;;;8.10;99.90;;;;;;5094663;28;20335;-45
2023/05/19 05:22:27;;;;;;;10.20;6.13;;;8.10;99.90;;;;;;5094830;28;20191;-44
2023/05/19 05:24:53;;;;;;;13.07;5.87;;;8.20;99.90;;;;;;5094639;28;20244;-45
2023/05/19 05:27:18;;;;;;;16.30;5.90;;;8.20;99.90;;;;;;5094464;28;20210;-42
2023/05/19 05:29:44;;;;;;;9.40;5.47;;;8.30;99.90;;;;;;5094459;28;20185;-43
2023/05/19 05:32:09;;;;;;;11.07;6.33;;;8.40;99.90;;;;;;5094763;28;20186;-43
2023/05/19 05:34:36;;;;;;;13.10;5.73;;;8.40;99.90;;;;;;5094486;28;20249;-44
2023/05/19 05:37:02;;;;;;;8.77;5.00;;;8.50;99.90;;;;;;5094601;28;20190;-43
2023/05/19 05:39:28;;;;;;;13.23;5.57;;;8.70;99.90;;;;;;5094390;28;20214;-43
2023/05/19 05:41:54;;;;;;;11.70;6.13;;;8.70;99.90;;;;;;5094311;28;20210;-43
2023/05/19 05:44:19;;;;;;;11.37;5.23;;;8.80;99.90;;;;;;5094471;28;20236;-43
2023/05/19 05:46:45;;;;;;;13.90;5.70;;;8.90;99.90;;;;;;5094121;28;20214;-42
2023/05/19 05:49:12;;;;;;;8.80;6.03;;;9.00;99.90;;;;;;5094132;28;20180;-44
2023/05/19 05:51:38;;;;;;;11.80;5.70;;;9.10;99.90;;;;;;5094153;28;20184;-44
2023/05/19 05:54:05;;;;;;;13.63;5.23;;;9.20;99.90;;;;;;5094354;28;20222;-45
2023/05/19 05:56:32;;;;;;;9.10;4.67;;;9.30;99.90;;;;;;5093977;28;20201;-42
2023/05/19 05:58:58;;;;;;;12.43;5.40;;;9.50;99.90;;;;;;5094271;28;20264;-45
2023/05/19 06:01:24;;;;;;;21.83;5.80;;;9.60;99.90;;;;;;5094282;28;20267;-44
2023/05/19 06:03:50;;;;;;;11.40;4.80;;;9.60;99.90;;;;;;5094157;28;20208;-44
2023/05/19 06:06:15;;;;;;;8.83;5.13;;;9.70;99.90;;;;;;5094171;28;20564;-45
2023/05/19 06:08:41;;;;;;;15.60;5.37;;;9.80;99.90;;;;;;5094336;28;20612;-41
2023/05/19 06:11:08;;;;;;;7.77;4.17;;;9.90;99.90;;;;;;5093488;28;20312;-44
2023/05/19 06:13:37;;;;;;;9.53;4.83;;;10.00;99.90;;;;;;5094001;28;20210;-45
2023/05/19 06:16:03;;;;;;;8.47;4.77;;;10.10;99.90;;;;;;5093722;28;20635;-40
2023/05/19 06:18:29;;;;;;;16.97;5.93;;;10.20;99.90;;;;;;5093634;28;20265;-44
2023/05/19 06:20:54;;;;;;;22.47;5.33;;;10.40;99.90;;;;;;5093719;28;20617;-43
2023/05/19 06:23:20;;;;;;;9.63;4.17;;;10.50;99.90;;;;;;5093584;28;20286;-45
2023/05/19 06:25:46;;;;;;;10.33;4.10;;;10.70;99.90;;;;;;5093520;28;20186;-43
2023/05/19 06:28:12;;;;;;;17.20;5.03;;;10.80;99.90;;;;;;5093776;28;20212;-43
2023/05/19 06:30:37;;;;;;;18.47;5.20;;;11.00;99.90;;;;;;5094047;28;20744;-43
2023/05/19 06:33:03;;;;;;;13.30;4.87;;;11.10;99.90;;;;;;5093697;28;20198;-45
2023/05/19 06:35:29;;;;;;;11.00;4.30;;;11.30;99.90;;;;;;5093788;28;20171;-43
2023/05/19 06:37:55;;;;;;;17.10;4.30;;;11.40;99.90;;;;;;5094002;28;20171;-44
2023/05/19 06:40:21;;;;;;;13.37;4.03;;;11.40;99.90;;;;;;5093287;28;20610;-45
2023/05/19 06:42:47;;;;;;;12.20;4.67;;;11.50;99.90;;;;;;5093339;28;20616;-44
2023/05/19 06:45:12;;;;;;;10.53;3.90;;;11.70;99.90;;;;;;5093353;28;20182;-45
2023/05/19 06:47:41;;;;;;;10.10;3.57;;;11.80;99.90;;;;;;5093292;28;20301;-45
2023/05/19 06:50:09;;;;;;;9.17;3.67;;;11.90;99.90;;;;;;5093326;28;20708;-46
2023/05/19 06:52:36;;;;;;;12.53;4.00;;;12.00;99.90;;;;;;5093498;28;20570;-45
2023/05/19 06:55:01;;;;;;;12.67;3.40;;;12.10;99.90;;;;;;5093879;28;20179;-43
2023/05/19 06:57:27;;;;;;;9.07;3.43;;;12.20;99.90;;;;;;5093578;28;20264;-46
2023/05/19 06:59:53;;;;;;;5.87;3.47;;;12.40;99.90;;;;;;5093294;28;20186;-43
2023/05/19 07:02:18;;;;;;;7.77;3.57;;;12.50;99.90;;;;;;5093414;28;20258;-43
2023/05/19 07:04:44;;;;;;;5.20;3.00;;;12.70;99.90;;;;;;5093570;28;20599;-43
2023/05/19 07:07:09;;;;;;;7.63;3.87;;;12.80;99.90;;;;;;5091863;28;20208;-45
2023/05/19 07:09:35;;;;;;;12.73;4.30;;;12.80;99.90;;;;;;5093222;28;20179;-45
2023/05/19 07:12:01;;;;;;;6.43;3.43;;;12.90;99.90;;;;;;5093141;28;20171;-45
2023/05/19 07:14:26;;;;;;;8.80;3.43;;;12.90;99.90;;;;;;5093340;28;20268;-45
2023/05/19 07:16:52;;;;;;;9.77;3.60;;;13.00;99.90;;;;;;5093094;28;20179;-47
2023/05/19 07:19:18;;;;;;;8.80;3.30;;;13.10;99.90;;;;;;5093039;28;20236;-46
2023/05/19 07:21:45;;;;;;;9.43;3.90;;;13.20;99.90;;;;;;5093712;28;20666;-45
2023/05/19 07:24:10;;;;;;;8.73;3.37;;;13.20;99.90;;;;;;5097862;28;20215;-45
2023/05/19 07:26:36;;;;;;;10.13;3.30;;;13.20;99.90;;;;;;5096880;28;20255;-45
2023/05/19 07:29:02;;;;;;;8.13;3.60;;;13.30;99.90;;;;;;5096866;28;20171;-45
2023/05/19 07:31:27;;;;;;;12.43;3.63;;;13.30;99.90;;;;;;5096865;28;20167;-46
2023/05/19 07:33:53;;;;;;;10.47;3.40;;;13.30;99.90;;;;;;5096671;28;20248;-46
2023/05/19 07:36:18;;;;;;;5.47;3.20;;;13.50;99.90;;;;;;5095438;28;20224;-46
2023/05/19 07:38:47;;;;;;;7.03;3.30;;;13.80;99.90;;;;;;5096932;28;20174;-45
2023/05/19 07:41:12;;;;;;;9.67;3.63;;;14.00;99.90;;;;;;5097086;28;20186;-43
2023/05/19 07:43:38;;;;;;;7.37;3.70;;;14.20;99.90;;;;;;5096680;28;20686;-45
2023/05/19 07:46:05;;;;;;;6.57;3.80;;;14.50;99.90;;;;;;5095294;28;20185;-44
2023/05/19 07:48:30;;;;;;;5.53;2.77;;;14.50;99.90;;;;;;5096417;28;20194;-45
2023/05/19 07:50:56;;;;;;;14.80;3.90;;;14.50;99.90;;;;;;5096765;28;20175;-45
2023/05/19 07:53:22;;;;;;;11.30;3.33;;;14.50;99.90;;;;;;5096489;28;20199;-47
2023/05/19 07:55:48;;;;;;;5.77;3.10;;;14.40;99.90;;;;;;5096619;28;20175;-46
2023/05/19 07:58:14;;;;;;;11.37;3.30;;;14.30;99.90;;;;;;5096334;28;20652;-43
2023/05/19 08:00:44;;;;;;;7.57;3.37;;;14.30;99.90;;;;;;5096521;28;20183;-43
2023/05/19 08:03:10;;;;;;;10.23;3.43;;;14.30;99.90;;;;;;5096431;28;20202;-45
2023/05/19 08:05:36;;;;;;;8.30;3.23;;;14.40;99.90;;;;;;5096197;28;20651;-45
2023/05/19 08:08:02;;;;;;;7.73;3.60;;;14.60;99.90;;;;;;5096111;28;20202;-45
2023/05/19 08:10:28;;;;;;;8.90;3.43;;;14.90;99.90;;;;;;5096352;28;20545;-46
2023/05/19 08:12:54;;;;;;;11.50;3.30;;;15.10;99.90;;;;;;5096187;28;20202;-45
2023/05/19 08:15:20;;;;;;;6.97;2.67;;;15.20;99.90;;;;;;5096292;28;20672;-45
2023/05/19 08:17:46;;;;;;;9.60;3.10;;;15.20;99.90;;;;;;5095906;28;20210;-45
2023/05/19 08:20:12;;;;;;;5.17;2.77;;;15.20;99.90;;;;;;5094602;28;20207;-44
2023/05/19 08:22:37;;;;;;;8.43;2.73;;;15.30;99.90;;;;;;5095753;28;20203;-45
2023/05/19 08:25:04;;;;;;;9.90;3.00;;;15.30;99.90;;;;;;5095772;28;20179;-43
2023/05/19 08:27:30;;;;;;;8.83;2.70;;;15.30;99.90;;;;;;5095999;28;20576;-47
2023/05/19 08:29:56;;;;;;;10.40;2.67;;;15.50;99.90;;;;;;5095954;28;20204;-43
2023/05/19 08:32:22;;;;;;;6.07;2.50;;;15.50;99.90;;;;;;5095117;28;20254;-44
2023/05/19 08:34:47;;;;;;;7.53;2.53;;;15.60;99.90;;;;;;5096406;28;20237;-47
2023/05/19 08:37:13;;;;;;;4.70;2.20;;;15.80;99.90;;;;;;5095725;28;20666;-46
2023/05/19 08:39:39;;;;;;;10.30;2.53;;;16.10;99.90;;;;;;5095417;28;20264;-45
2023/05/19 08:42:06;;;;;;;8.57;2.60;;;16.30;99.90;;;;;;5096217;28;20190;-45
2023/05/19 08:44:32;;;;;;;8.40;3.03;;;16.20;99.90;;;;;;5095368;28;20206;-46
2023/05/19 08:47:02;;;;;;;6.53;3.00;;;16.30;99.90;;;;;;5095229;28;20207;-46
2023/05/19 08:49:34;;;;;;;8.47;2.50;;;16.50;99.90;;;;;;5095389;28;20228;-46
2023/05/19 08:52:12;;;;;;;6.23;2.47;;;16.50;99.90;;;;;;5095275;28;20178;-45
2023/05/19 08:54:49;;;;;;;9.83;2.10;;;16.40;99.90;;;;;;5095845;28;20162;-46
2023/05/19 08:57:15;;;;;;;5.90;2.30;;;16.40;99.90;;;;;;5095519;28;20163;-45
2023/05/19 08:59:42;;;;;;;5.20;2.20;;;16.60;99.90;;;;;;5095366;28;20191;-46
2023/05/19 09:02:11;;;;;;;10.27;3.10;;;16.90;99.90;;;;;;5095391;28;20204;-45
2023/05/19 09:04:38;;;;;;;6.47;2.10;;;17.10;99.90;;;;;;5095225;28;20214;-47
2023/05/19 09:07:04;;;;;;;9.97;2.20;;;17.20;99.90;;;;;;5095236;28;20628;-47
2023/05/19 09:09:30;;;;;;;5.43;1.93;;;17.20;99.90;;;;;;5095259;28;20540;-48
2023/05/19 09:11:56;;;;;;;10.70;2.33;;;17.20;99.90;;;;;;5094889;28;20174;-47
2023/05/19 09:14:22;;;;;;;7.03;2.17;;;17.30;99.90;;;;;;5094823;28;20600;-47
2023/05/19 09:16:51;;;;;;;7.87;2.07;;;17.50;99.90;;;;;;5095098;28;20171;-47
2023/05/19 09:19:16;;;;;;;7.00;2.57;;;17.80;99.90;;;;;;5095077;28;20171;-44
2023/05/19 09:21:44;;;;;;;6.03;1.87;;;18.10;99.90;;;;;;5094782;28;20245;-46
2023/05/19 09:24:10;;;;;;;5.23;1.93;;;18.20;99.90;;;;;;5094669;28;20237;-47
2023/05/19 09:26:40;;;;;;;3.27;1.47;;;18.40;99.90;;;;;;5095171;28;20619;-45
2023/05/19 09:29:16;;;;;;;6.27;1.90;;;18.50;99.90;;;;;;5095175;28;20237;-46
2023/05/19 09:31:49;;;;;;;6.60;2.13;;;18.60;99.90;;;;;;5094572;28;20171;-45
2023/05/19 09:34:15;;;;;;;5.53;2.20;;;18.60;99.90;;;;;;5094753;28;20207;-45
2023/05/19 09:36:41;;;;;;;4.90;1.83;;;18.60;99.90;;;;;;5094758;28;20236;-46
2023/05/19 09:39:17;;;;;;;9.03;2.07;;;18.70;99.90;;;;;;5094422;28;20201;-47
2023/05/19 09:41:43;;;;;;;9.50;1.90;;;18.90;99.90;;;;;;5094624;28;20190;-46
2023/05/19 09:44:31;;;;;;;6.37;2.07;;;19.00;99.90;;;;;;5093741;28;20278;-46
2023/05/19 09:46:57;;;;;;;5.97;1.70;;;19.00;99.90;;;;;;5094449;28;20535;-51
2023/05/19 09:49:30;;;;;;;8.27;1.67;;;19.00;99.90;;;;;;5094203;28;20203;-52
2023/05/19 09:51:56;;;;;;;9.90;2.03;;;18.80;99.90;;;;;;5094457;28;20171;-52
2023/05/19 09:54:23;;;;;;;5.47;1.63;;;18.70;99.90;;;;;;5094005;28;20195;-51
2023/05/19 09:57:03;;;;;;;7.67;1.73;;;18.60;99.90;;;;;;5094177;28;20262;-51
2023/05/19 09:59:30;;;;;;;5.73;2.03;;;18.60;99.90;;;;;;5094326;28;20218;-50
2023/05/19 10:01:57;;;;;;;7.30;2.30;;;18.90;99.90;;;;;;5094056;28;20199;-51
2023/05/19 10:04:25;;;;;;;5.63;2.00;;;19.10;99.90;;;;;;5094078;28;20202;-50
2023/05/19 10:06:55;;;;;;;4.17;1.80;;;19.20;99.90;;;;;;5094059;28;20179;-45
2023/05/19 10:09:24;;;;;;;5.37;2.10;;;19.30;99.90;;;;;;5093914;28;20225;-46
2023/05/19 10:11:57;;;;;;;7.30;2.27;;;19.50;99.90;;;;;;5093838;28;20182;-47
2023/05/19 10:14:27;;;;;;;2.47;1.40;;;19.40;99.90;;;;;;5094086;28;20206;-45
2023/05/19 10:16:57;;;;;;;3.43;2.00;;;19.50;99.90;;;;;;5094005;28;20187;-44
2023/05/19 10:19:24;;;;;;;6.07;2.13;;;19.70;99.90;;;;;;5093932;28;20210;-46
2023/05/19 10:21:51;;;;;;;5.20;1.93;;;19.90;99.90;;;;;;5093622;28;20186;-46
2023/05/19 10:24:17;;;;;;;4.97;2.20;;;19.80;99.90;;;;;;5093576;28;20543;-46
2023/05/19 10:26:47;;;;;;;6.37;2.10;;;19.50;99.90;;;;;;5093549;28;20193;-45
2023/05/19 10:29:17;;;;;;;6.23;2.10;;;19.40;99.90;;;;;;5094114;28;20624;-46
2023/05/19 10:31:44;;;;;;;5.20;1.77;;;19.50;99.90;;;;;;5093828;28;20182;-46
2023/05/19 10:34:20;;;;;;;5.03;2.00;;;19.70;99.90;;;;;;5093443;28;20594;-52
2023/05/19 10:37:27;;;;;;;3.80;2.30;;;20.00;99.90;;;;;;5093704;28;20634;-53
2023/05/19 10:39:54;;;;;;;4.50;1.90;;;20.20;99.90;;;;;;5093404;28;20600;-53
2023/05/19 10:43:07;;;;;;;4.63;1.97;;;20.40;99.90;;;;;;5093361;28;20202;-53
2023/05/19 10:45:40;;;;;;;6.13;2.43;;;20.60;99.90;;;;;;5074767;28;20186;-52
2023/05/19 10:48:10;;;;;;;3.90;1.60;;;20.70;99.90;;;;;;5093546;28;20202;-52
2023/05/19 10:50:36;;;;;;;4.27;1.70;;;20.90;99.90;;;;;;5093315;28;20177;-52
2023/05/19 10:53:02;;;;;;;7.43;2.10;;;21.10;99.90;;;;;;5093425;28;20220;-52
2023/05/19 10:56:03;;;;;;;5.57;1.73;;;21.00;99.90;;;;;;5093351;28;20182;-53
2023/05/19 10:58:43;;;;;;;7.00;2.07;;;20.90;99.90;;;;;;5097499;28;20173;-53
2023/05/19 11:01:13;;;;;;;6.50;1.73;;;20.50;99.90;;;;;;5097604;28;20506;-52
2023/05/19 11:03:51;;;;;;;7.23;2.03;;;20.40;99.90;;;;;;5097537;28;20202;-52
2023/05/19 11:06:24;;;;;;;7.70;1.87;;;20.30;99.90;;;;;;5097298;28;20239;-52
2023/05/19 11:09:03;;;;;;;9.77;2.07;;;20.30;99.90;;;;;;5097463;28;20569;-53
2023/05/19 11:11:46;;;;;;;7.73;2.10;;;20.40;99.90;;;;;;5097494;28;20174;-51
2023/05/19 11:14:13;;;;;;;5.93;1.90;;;20.60;99.90;;;;;;5097357;28;20205;-52
2023/05/19 11:16:40;;;;;;;6.40;2.00;;;20.70;99.90;;;;;;5097244;28;20186;-52
2023/05/19 11:19:06;;;;;;;5.87;2.07;;;20.90;99.90;;;;;;5096992;28;20240;-53
2023/05/19 11:21:45;;;;;;;5.13;1.70;;;20.60;99.90;;;;;;5097006;28;20175;-53
2023/05/19 11:24:37;;;;;;;8.73;2.00;;;20.50;99.90;;;;;;5097512;28;20259;-53
2023/05/19 11:27:27;;;;;;;5.77;1.90;;;20.60;99.90;;;;;;5097196;28;20612;-52
2023/05/19 11:29:55;;;;;;;4.63;1.83;;;20.60;99.90;;;;;;5097210;28;20178;-53
2023/05/19 11:32:24;;;;;;;5.30;1.90;;;20.70;99.90;;;;;;5097045;28;20187;-52
2023/05/19 11:34:50;;;;;;;5.57;1.90;;;20.70;99.90;;;;;;5096782;28;20171;-52
2023/05/19 11:37:16;;;;;;;3.93;1.80;;;20.90;99.90;;;;;;5097022;28;20252;-51
2023/05/19 11:39:44;;;;;;;3.50;1.77;;;21.10;99.90;;;;;;5096550;28;20662;-51
2023/05/19 11:42:10;;;;;;;4.37;1.80;;;21.20;99.90;;;;;;5096658;28;20179;-52
2023/05/19 11:44:37;;;;;;;8.77;2.37;;;21.10;99.90;;;;;;5096769;28;20344;-52
2023/05/19 11:47:04;;;;;;;5.63;1.90;;;20.90;99.90;;;;;;5097552;28;20544;-52
2023/05/19 11:49:29;;;;;;;7.37;2.17;;;20.90;99.90;;;;;;5096789;28;20191;-52
2023/05/19 11:51:56;;;;;;;5.60;1.90;;;20.80;99.90;;;;;;5097113;28;20182;-53
2023/05/19 11:54:29;;;;;;;6.27;1.97;;;20.80;99.90;;;;;;5096337;28;20197;-53
2023/05/19 11:56:54;;;;;;;5.53;2.03;;;20.90;99.90;;;;;;5096703;28;20175;-52
2023/05/19 11:59:29;;;;;;;5.17;1.63;;;20.90;99.90;;;;;;5096503;28;20680;-52
2023/05/19 12:01:55;;;;;;;7.73;2.00;;;21.10;99.90;;;;;;5096308;28;20173;-52
2023/05/19 12:04:20;;;;;;;9.63;2.43;;;21.10;99.90;;;;;;5096417;28;20281;-52
2023/05/19 12:06:48;;;;;;;4.37;1.80;;;21.10;99.90;;;;;;5096235;28;20236;-52
2023/05/19 12:09:14;;;;;;;6.40;2.17;;;21.20;99.90;;;;;;5095301;28;20179;-52
2023/05/19 12:11:39;;;;;;;4.40;1.67;;;21.30;99.90;;;;;;5096285;28;20190;-52
2023/05/19 12:14:07;;;;;;;10.60;2.33;;;21.20;99.90;;;;;;5096021;28;20220;-52
2023/05/19 12:16:34;;;;;;;5.87;1.90;;;21.10;99.90;;;;;;5096190;28;20232;-51
2023/05/19 12:19:00;;;;;;;10.27;2.33;;;21.10;99.90;;;;;;5096179;28;20201;-52
2023/05/19 12:21:26;;;;;;;6.47;2.00;;;21.00;99.90;;;;;;5094632;28;20197;-52
2023/05/19 12:23:52;;;;;;;6.57;1.90;;;20.90;99.90;;;;;;5094505;28;20663;-53
2023/05/19 12:26:18;;;;;;;5.47;1.98;;;20.90;99.80;;;;;;5095855;28;20201;-52
2023/05/19 12:28:44;;;;;;;6.33;2.30;;;20.80;99.90;;;;;;5096002;28;20213;-52
2023/05/19 12:31:11;;;;;;;7.27;2.20;;;20.80;99.90;;;;;;5095979;28;20228;-52
2023/05/19 12:33:36;;;;;;;6.17;2.10;;;20.90;99.90;;;;;;5095899;28;20275;-52
2023/05/19 12:36:03;;;;;;;10.15;2.25;;;21.00;99.90;;;;;;5095591;28;20670;-51
2023/05/19 12:38:29;;;;;;;5.77;1.90;;;21.20;99.90;;;;;;5095532;28;20186;-52
2023/05/19 12:40:58;;;;;;;6.30;1.60;;;21.30;99.90;;;;;;5095369;28;20289;-52
2023/05/19 12:43:24;;;;;;;9.65;2.20;;;21.60;99.90;;;;;;5095605;28;20234;-51
2023/05/19 12:45:51;;;;;;;4.47;1.80;;;21.90;99.90;;;;;;5095650;28;20280;-51
2023/05/19 12:48:16;;;;;;;4.15;1.70;;;21.70;99.90;;;;;;5111011;28;20301;-49
2023/05/19 12:50:43;;;;;;;6.13;2.35;;;21.40;99.90;;;;;;5095560;28;20308;-50
2023/05/19 12:53:13;;;;;;;4.87;1.93;;;21.10;99.90;;;;;;5095109;28;20209;-49